Irving Johnson — WDB3153 — position and weather

sailwx.info

Track history (hours):
 
Tides and Currents Weather Stations Pressure Air Temp Water Temp Dewpoint Dewpoint Depression Visibility Wind Speed Wind Dir Waves Ship Positions

Irving Johnson (United States)

Ship's website: http://www.lamitopsail.org/

Owner: Los Angeles Maritime Institute, San Pedro, CA. More information available from US FCC via Universal Licensing System and Coast Guard Vessel Documentation Center.

Last reported at 2017-Aug-18 18:00 UTC. Time now 2017-Aug-18 18:21 UTC.
Position N 33°41' W 118°17'.

; draft 4 m.

Type: Sailing vessel. MMSI: 369725000.

Date/timePositionNaut miles runAvg speedWind from/ knotsBaromVisibWave heightAir tempDewpointWater temp
2017-Aug-18 18:00N 33°41' W 118°17'2 4.6
2017-Aug-18 17:29N 33°39' W 118°20'1 1.5
2017-Aug-18 17:00N 33°38' W 118°20'1 1.5
2017-Aug-18 16:30N 33°38' W 118°20'1 1.6
2017-Aug-18 16:00N 33°37' W 118°21'2 4.2
2017-Aug-18 15:30N 33°35' W 118°22'3 5.7
2017-Aug-18 14:58N 33°33' W 118°25'11 0.3
2017-Aug-16 22:21N 33°25' W 118°33'2 5.3
2017-Aug-16 21:59N 33°24' W 118°31'1 0.1
2017-Aug-16 01:29N 33°25' W 118°32'3 0.1
2017-Aug-15 02:17N 33°27' W 118°30'1 3.6
2017-Aug-15 01:59N 33°28' W 118°29'2 3.8
2017-Aug-15 01:31N 33°29' W 118°28'1 1.4
2017-Aug-15 00:47N 33°29' W 118°27'6 4.2
2017-Aug-14 23:25N 33°34' W 118°23'1 3.3
2017-Aug-14 23:00N 33°35' W 118°22'2 3.3
2017-Aug-14 22:30N 33°37' W 118°22'4 5.4
2017-Aug-14 21:47N 33°40' W 118°19'2 6.1
2017-Aug-14 21:30N 33°41' W 118°17'2 4.6
2017-Aug-14 21:00N 33°43' W 118°16'1 1.7
2017-Aug-14 20:21N 33°44' W 118°17'0 0.0
2017-Aug-14 19:58N 33°44' W 118°17'0 0.0
2017-Aug-14 19:27N 33°44' W 118°17'0 0.1
2017-Aug-14 19:00N 33°44' W 118°17'0 0.2
2017-Aug-14 18:16N 33°44' W 118°17'0 0.0
2017-Aug-13 02:13N 33°44' W 118°17'0 0.5
2017-Aug-13 02:00N 33°44' W 118°17'2 4.4
2017-Aug-13 01:30N 33°42' W 118°15'4 3.8
2017-Aug-13 00:30N 33°39' W 118°17'3 6.0
2017-Aug-12 23:59N 33°41' W 118°16'2 4.7
2017-Aug-12 23:30N 33°43' W 118°16'1 1.2
2017-Aug-12 22:59N 33°44' W 118°17'0 0.0
2017-Aug-12 22:28N 33°44' W 118°17'0 0.0
2017-Aug-12 21:56N 33°44' W 118°17'0 0.0
2017-Aug-11 20:30N 33°44' W 118°17'0 0.0
2017-Aug-11 19:29N 33°44' W 118°17'0 0.0
2017-Aug-11 18:58N 33°44' W 118°17'0 0.0
2017-Aug-11 18:30N 33°44' W 118°17'2 3.5
2017-Aug-11 18:00N 33°43' W 118°15'3 5.4
2017-Aug-11 17:27N 33°40' W 118°17'6 4.8
2017-Aug-11 16:19N 33°37' W 118°23'1 4.1
2017-Aug-11 15:57N 33°37' W 118°25'2 5.1
2017-Aug-11 15:30N 33°36' W 118°27'4 4.8
2017-Aug-11 14:45N 33°32' W 118°28'4 5.3
2017-Aug-11 14:00N 33°28' W 118°29'2 0.0
2017-Aug-10 01:31N 33°27' W 118°30'0 2.0
2017-Aug-10 01:26N 33°27' W 118°30'4 3.7
2017-Aug-10 00:24N 33°29' W 118°34'4 0.2
2017-Aug-09 02:04N 33°25' W 118°33'1 6.5
2017-Aug-09 01:51N 33°26' W 118°35'2 6.8
2017-Aug-09 01:30N 33°28' W 118°37'4 7.0
2017-Aug-09 01:00N 33°31' W 118°36'2 3.1
2017-Aug-09 00:30N 33°33' W 118°36'0 0.5
2017-Aug-09 00:00N 33°33' W 118°36'2 3.6
2017-Aug-08 23:30N 33°31' W 118°35'1 1.9
2017-Aug-08 23:00N 33°30' W 118°35'3 4.0
2017-Aug-08 22:13N 33°33' W 118°34'1 2.3
2017-Aug-08 21:59N 33°34' W 118°34'1 2.0
2017-Aug-08 21:30N 33°33' W 118°33'2 4.4
2017-Aug-08 20:59N 33°31' W 118°32'2 4.2
2017-Aug-08 20:30N 33°29' W 118°31'2 3.5
2017-Aug-08 19:59N 33°27' W 118°30'  
Track history (hours):
 
Tides and Currents Weather Stations Pressure Air Temp Water Temp Dewpoint Dewpoint Depression Visibility Wind Speed Wind Dir Waves Ship Positions

Irving Johnson (United States)

Ship's website: http://www.lamitopsail.org/

Owner: Los Angeles Maritime Institute, San Pedro, CA. More information available from US FCC via Universal Licensing System and Coast Guard Vessel Documentation Center.

Last reported at 2017-Aug-18 18:00 UTC. Time now 2017-Aug-18 18:21 UTC.
Position N 33°41' W 118°17'.

; draft 4 m.

Type: Sailing vessel. MMSI: 369725000.

Date/timePositionNaut miles runAvg speedWind from/ knotsBaromVisibWave heightAir tempDewpointWater temp
2017-Aug-18 18:00N 33°41' W 118°17'2 4.6
2017-Aug-18 17:29N 33°39' W 118°20'1 1.5
2017-Aug-18 17:00N 33°38' W 118°20'1 1.5
2017-Aug-18 16:30N 33°38' W 118°20'1 1.6
2017-Aug-18 16:00N 33°37' W 118°21'2 4.2
2017-Aug-18 15:30N 33°35' W 118°22'3 5.7
2017-Aug-18 14:58N 33°33' W 118°25'11 0.3
2017-Aug-16 22:21N 33°25' W 118°33'2 5.3
2017-Aug-16 21:59N 33°24' W 118°31'1 0.1
2017-Aug-16 01:29N 33°25' W 118°32'3 0.1
2017-Aug-15 02:17N 33°27' W 118°30'1 3.6
2017-Aug-15 01:59N 33°28' W 118°29'2 3.8
2017-Aug-15 01:31N 33°29' W 118°28'1 1.4
2017-Aug-15 00:47N 33°29' W 118°27'6 4.2
2017-Aug-14 23:25N 33°34' W 118°23'1 3.3
2017-Aug-14 23:00N 33°35' W 118°22'2 3.3
2017-Aug-14 22:30N 33°37' W 118°22'4 5.4
2017-Aug-14 21:47N 33°40' W 118°19'2 6.1
2017-Aug-14 21:30N 33°41' W 118°17'2 4.6
2017-Aug-14 21:00N 33°43' W 118°16'1 1.7
2017-Aug-14 20:21N 33°44' W 118°17'0 0.0
2017-Aug-14 19:58N 33°44' W 118°17'0 0.0
2017-Aug-14 19:27N 33°44' W 118°17'0 0.1
2017-Aug-14 19:00N 33°44' W 118°17'0 0.2
2017-Aug-14 18:16N 33°44' W 118°17'0 0.0
2017-Aug-13 02:13N 33°44' W 118°17'0 0.5
2017-Aug-13 02:00N 33°44' W 118°17'2 4.4
2017-Aug-13 01:30N 33°42' W 118°15'4 3.8
2017-Aug-13 00:30N 33°39' W 118°17'3 6.0
2017-Aug-12 23:59N 33°41' W 118°16'2 4.7
2017-Aug-12 23:30N 33°43' W 118°16'1 1.2
2017-Aug-12 22:59N 33°44' W 118°17'0 0.0
2017-Aug-12 22:28N 33°44' W 118°17'0 0.0
2017-Aug-12 21:56N 33°44' W 118°17'0 0.0
2017-Aug-11 20:30N 33°44' W 118°17'0 0.0
2017-Aug-11 19:29N 33°44' W 118°17'0 0.0
2017-Aug-11 18:58N 33°44' W 118°17'0 0.0
2017-Aug-11 18:30N 33°44' W 118°17'2 3.5
2017-Aug-11 18:00N 33°43' W 118°15'3 5.4
2017-Aug-11 17:27N 33°40' W 118°17'6 4.8
2017-Aug-11 16:19N 33°37' W 118°23'1 4.1
2017-Aug-11 15:57N 33°37' W 118°25'2 5.1
2017-Aug-11 15:30N 33°36' W 118°27'4 4.8
2017-Aug-11 14:45N 33°32' W 118°28'4 5.3
2017-Aug-11 14:00N 33°28' W 118°29'2 0.0
2017-Aug-10 01:31N 33°27' W 118°30'0 2.0
2017-Aug-10 01:26N 33°27' W 118°30'4 3.7
2017-Aug-10 00:24N 33°29' W 118°34'4 0.2
2017-Aug-09 02:04N 33°25' W 118°33'1 6.5
2017-Aug-09 01:51N 33°26' W 118°35'2 6.8
2017-Aug-09 01:30N 33°28' W 118°37'4 7.0
2017-Aug-09 01:00N 33°31' W 118°36'2 3.1
2017-Aug-09 00:30N 33°33' W 118°36'0 0.5
2017-Aug-09 00:00N 33°33' W 118°36'2 3.6
2017-Aug-08 23:30N 33°31' W 118°35'1 1.9
2017-Aug-08 23:00N 33°30' W 118°35'3 4.0
2017-Aug-08 22:13N 33°33' W 118°34'1 2.3
2017-Aug-08 21:59N 33°34' W 118°34'1 2.0
2017-Aug-08 21:30N 33°33' W 118°33'2 4.4
2017-Aug-08 20:59N 33°31' W 118°32'2 4.2
2017-Aug-08 20:30N 33°29' W 118°31'2 3.5
2017-Aug-08 19:59N 33°27' W 118°30'  

Dump ship's entire track history